Time;durP1;ratioP1;P1;durP2;ratioP2;P2;SDS_P1;SDS_P2;PMS_P1;PMS_P2;Temp;Humidity;BMP_temperature;BMP_pressure;BME280_temperature;BME280_humidity;BME280_pressure;Samples;Min_cycle;Max_cycle;Signal;HPM_P1;HPM_P2
2023/03/26 00:01:20;;;;;;;0.45;0.45;;;8.40;99.90;;;;;;5013830;28;20046;-64
2023/03/26 00:03:52;;;;;;;0.10;0.10;;;8.30;99.90;;;;;;5003030;28;20073;-64
2023/03/26 00:06:19;;;;;;;0.30;0.30;;;8.30;99.90;;;;;;5000926;28;20142;-64
2023/03/26 00:08:45;;;;;;;0.00;0.00;;;8.30;99.90;;;;;;5012152;28;20049;-64
2023/03/26 00:11:13;;;;;;;0.20;0.20;;;8.30;99.90;;;;;;5000711;28;20457;-64
2023/03/26 00:13:42;;;;;;;0.20;0.20;;;8.30;99.90;;;;;;5004333;28;20046;-64
2023/03/26 00:16:09;;;;;;;0.00;0.00;;;8.20;99.90;;;;;;5004766;28;20133;-64
2023/03/26 00:18:36;;;;;;;0.10;0.10;;;8.20;99.90;;;;;;5006825;28;20105;-64
2023/03/26 00:21:04;;;;;;;0.15;0.15;;;8.20;99.90;;;;;;5010556;28;20768;-64
2023/03/26 00:23:32;;;;;;;0.10;0.10;;;8.30;99.90;;;;;;5006254;28;20037;-64
2023/03/26 00:25:59;;;;;;;0.00;0.00;;;8.30;99.90;;;;;;5003354;28;20116;-64
2023/03/26 00:28:26;;;;;;;0.10;0.10;;;8.30;99.90;;;;;;5002698;28;20034;-64
2023/03/26 00:31:00;;;;;;;0.00;0.00;;;8.30;99.90;;;;;;5007335;28;20049;-64
2023/03/26 00:33:26;;;;;;;0.00;0.00;;;8.30;99.90;;;;;;5009460;28;20041;-64
2023/03/26 00:35:54;;;;;;;0.00;0.00;;;8.30;99.90;;;;;;5003594;28;20037;-64
2023/03/26 00:38:21;;;;;;;0.10;0.10;;;8.30;99.90;;;;;;5010619;28;20041;-64
2023/03/26 00:40:49;;;;;;;0.50;0.50;;;8.30;99.90;;;;;;5010376;28;20124;-64
2023/03/26 00:43:18;;;;;;;0.08;0.08;;;8.30;99.90;;;;;;5000777;28;20541;-64
2023/03/26 00:45:49;;;;;;;1.20;1.10;;;8.20;99.90;;;;;;5001541;28;20097;-64
2023/03/26 00:48:16;;;;;;;0.17;0.17;;;8.20;99.90;;;;;;5008588;28;20523;-64
2023/03/26 00:50:44;;;;;;;0.10;0.10;;;8.20;99.90;;;;;;5002785;28;20089;-64
2023/03/26 00:53:13;;;;;;;0.00;0.00;;;8.20;99.90;;;;;;5004728;28;20398;-64
2023/03/26 00:55:45;;;;;;;0.10;0.10;;;8.20;99.90;;;;;;5005114;28;20045;-64
2023/03/26 00:58:12;;;;;;;0.22;0.22;;;8.20;99.90;;;;;;5001009;28;20046;-64
2023/03/26 01:00:51;;;;;;;0.20;0.20;;;8.20;99.90;;;;;;5001383;28;20046;-64
2023/03/26 01:03:18;;;;;;;1.10;1.10;;;8.20;99.90;;;;;;5005732;28;20161;-64
2023/03/26 01:05:51;;;;;;;0.10;0.10;;;8.20;99.90;;;;;;5010569;28;20056;-64
2023/03/26 01:08:31;;;;;;;0.03;0.03;;;8.10;99.90;;;;;;5011122;28;20481;-64
2023/03/26 01:11:01;;;;;;;0.10;0.10;;;8.10;99.90;;;;;;5000696;28;20121;-64
2023/03/26 01:13:33;;;;;;;3.03;1.88;;;8.10;99.90;;;;;;5000105;28;20104;-64
2023/03/26 01:16:00;;;;;;;0.20;0.20;;;8.10;99.90;;;;;;5011804;28;20051;-64
2023/03/26 01:18:32;;;;;;;0.73;0.73;;;8.20;99.90;;;;;;5006569;28;20121;-64
2023/03/26 01:21:04;;;;;;;0.10;0.10;;;8.10;99.90;;;;;;5010598;28;20068;-64
2023/03/26 01:23:47;;;;;;;1.35;0.90;;;8.20;99.90;;;;;;4999948;28;20458;-64
2023/03/26 01:26:22;;;;;;;0.10;0.10;;;8.10;99.90;;;;;;5010267;28;20420;-64
2023/03/26 01:28:53;;;;;;;0.10;0.10;;;8.10;99.90;;;;;;5004981;28;20081;-64
2023/03/26 01:31:28;;;;;;;0.10;0.10;;;8.20;99.90;;;;;;5001336;28;20585;-64
2023/03/26 01:34:13;;;;;;;2.63;1.35;;;8.20;99.90;;;;;;4997459;28;20050;-64
2023/03/26 01:36:56;;;;;;;0.10;0.10;;;8.10;99.90;;;;;;5011786;28;20065;-64
2023/03/26 01:39:40;;;;;;;0.10;0.10;;;8.20;99.90;;;;;;5005890;28;20042;-64
2023/03/26 01:42:28;;;;;;;0.00;0.00;;;8.10;99.90;;;;;;5008076;28;20100;-64
2023/03/26 01:45:30;;;;;;;0.00;0.00;;;8.10;99.90;;;;;;5003298;28;20062;-64
2023/03/26 01:47:57;;;;;;;0.10;0.10;;;8.10;99.90;;;;;;4982768;28;20401;-64
2023/03/26 01:50:22;;;;;;;1.05;1.05;;;8.10;99.90;;;;;;5001981;28;20096;-64
2023/03/26 01:52:48;;;;;;;0.30;0.30;;;8.10;99.90;;;;;;5005691;28;20584;-64
2023/03/26 01:55:14;;;;;;;0.45;0.45;;;8.00;99.90;;;;;;5009974;28;20034;-64
2023/03/26 01:58:03;;;;;;;0.10;0.10;;;8.10;99.90;;;;;;5011428;28;20042;-64
2023/03/26 02:00:34;;;;;;;0.10;0.10;;;8.10;99.90;;;;;;4998678;28;20046;-64
2023/03/26 02:03:33;;;;;;;0.10;0.10;;;8.10;99.90;;;;;;5003786;28;20144;-64
2023/03/26 02:06:14;;;;;;;1.08;0.73;;;8.10;99.90;;;;;;5009374;28;20046;-64
2023/03/26 02:09:03;;;;;;;0.00;0.00;;;8.20;99.90;;;;;;4996526;28;20053;-64
2023/03/26 02:11:29;;;;;;;1.17;0.80;;;8.10;99.90;;;;;;5003775;28;20137;-64
2023/03/26 02:13:55;;;;;;;0.30;0.30;;;8.10;99.90;;;;;;5011388;28;20112;-65
2023/03/26 02:16:20;;;;;;;0.10;0.10;;;8.20;99.90;;;;;;5004604;28;20500;-64
2023/03/26 02:18:50;;;;;;;0.00;0.00;;;8.20;99.90;;;;;;5009245;28;20060;-64
2023/03/26 02:21:21;;;;;;;0.10;0.10;;;8.20;99.90;;;;;;5003783;28;20038;-64
2023/03/26 02:23:49;;;;;;;0.10;0.10;;;8.20;99.90;;;;;;5002666;28;20052;-64
2023/03/26 02:26:18;;;;;;;0.10;0.10;;;8.20;99.90;;;;;;5009555;28;20485;-64
2023/03/26 02:28:44;;;;;;;0.10;0.10;;;8.20;99.90;;;;;;5010652;28;20057;-64
2023/03/26 02:31:12;;;;;;;0.10;0.10;;;8.20;99.90;;;;;;5000111;28;20052;-64
2023/03/26 02:33:38;;;;;;;0.08;0.08;;;8.20;99.90;;;;;;5006094;28;20163;-64
2023/03/26 02:36:07;;;;;;;0.80;0.63;;;8.20;99.90;;;;;;5011091;28;20125;-64
2023/03/26 02:38:33;;;;;;;0.25;0.25;;;8.10;99.90;;;;;;5004796;28;20094;-64
2023/03/26 02:41:00;;;;;;;0.00;0.00;;;8.10;99.90;;;;;;5000549;28;20050;-64
2023/03/26 02:43:26;;;;;;;0.03;0.03;;;8.10;99.90;;;;;;5009974;28;20437;-64
2023/03/26 02:45:51;;;;;;;0.10;0.10;;;8.10;99.90;;;;;;5010020;28;20053;-64
2023/03/26 02:48:17;;;;;;;0.10;0.10;;;8.00;99.90;;;;;;5003668;28;20042;-64
2023/03/26 02:50:44;;;;;;;0.10;0.10;;;7.90;99.90;;;;;;5006539;28;20046;-65
2023/03/26 02:53:10;;;;;;;0.55;0.50;;;7.90;99.90;;;;;;5007455;28;20041;-64
2023/03/26 02:55:37;;;;;;;0.17;0.17;;;7.80;99.90;;;;;;5005934;28;20046;-64
2023/03/26 02:58:02;;;;;;;2.40;1.08;;;7.80;99.90;;;;;;5003100;28;20080;-64
2023/03/26 03:00:28;;;;;;;0.10;0.10;;;7.70;99.90;;;;;;5002514;28;20093;-64
2023/03/26 03:02:56;;;;;;;0.10;0.10;;;7.60;99.90;;;;;;4995518;28;20082;-64
2023/03/26 03:05:25;;;;;;;0.73;0.73;;;7.60;99.90;;;;;;5008133;28;20049;-64
2023/03/26 03:07:51;;;;;;;0.10;0.10;;;7.50;99.90;;;;;;5007209;28;20702;-64
2023/03/26 03:10:20;;;;;;;0.00;0.00;;;7.40;99.90;;;;;;4992172;28;20045;-64
2023/03/26 03:12:46;;;;;;;0.10;0.10;;;7.40;99.90;;;;;;5006151;28;20052;-64
2023/03/26 03:15:12;;;;;;;0.30;0.30;;;7.40;99.90;;;;;;4999576;28;20080;-64
2023/03/26 03:17:37;;;;;;;0.50;0.50;;;7.30;99.90;;;;;;4998003;28;20046;-64
2023/03/26 03:20:05;;;;;;;0.10;0.10;;;7.30;99.90;;;;;;5001620;28;20501;-64
2023/03/26 03:22:30;;;;;;;0.10;0.10;;;7.30;99.90;;;;;;5009529;28;20042;-64
2023/03/26 03:24:58;;;;;;;0.80;0.80;;;7.20;99.90;;;;;;5009540;28;20057;-64
2023/03/26 03:27:25;;;;;;;0.00;0.00;;;7.20;99.90;;;;;;5001816;28;20045;-64
2023/03/26 03:29:52;;;;;;;2.53;1.85;;;7.20;99.90;;;;;;5003590;28;20517;-64
2023/03/26 03:32:18;;;;;;;0.10;0.10;;;7.20;99.90;;;;;;5003077;28;20053;-64
2023/03/26 03:34:44;;;;;;;0.40;0.40;;;7.20;99.90;;;;;;5006866;28;20490;-64
2023/03/26 03:37:10;;;;;;;1.40;1.30;;;7.20;99.90;;;;;;5003351;28;20042;-64
2023/03/26 03:39:35;;;;;;;0.25;0.25;;;7.20;99.90;;;;;;4997464;28;20042;-64
2023/03/26 03:42:01;;;;;;;0.10;0.10;;;7.20;99.90;;;;;;4992109;28;20141;-64
2023/03/26 03:44:26;;;;;;;0.20;0.20;;;7.20;99.90;;;;;;5016891;28;20077;-64
2023/03/26 03:46:54;;;;;;;0.00;0.00;;;7.20;99.90;;;;;;4997611;28;20046;-64
2023/03/26 03:49:20;;;;;;;0.10;0.10;;;7.20;99.90;;;;;;5007826;28;20050;-64
2023/03/26 03:51:46;;;;;;;0.85;0.57;;;7.20;99.90;;;;;;4992796;28;20391;-64
2023/03/26 03:54:11;;;;;;;0.57;0.57;;;7.20;99.90;;;;;;5003447;28;20056;-64
2023/03/26 03:56:37;;;;;;;6.82;3.40;;;7.20;99.90;;;;;;4996448;28;20038;-64
2023/03/26 03:59:03;;;;;;;0.03;0.03;;;7.10;99.90;;;;;;5006740;28;20450;-64
2023/03/26 04:01:29;;;;;;;0.20;0.20;;;7.10;99.90;;;;;;5007894;28;20068;-64
2023/03/26 04:03:55;;;;;;;0.95;0.95;;;7.10;99.90;;;;;;5005092;28;20104;-64
2023/03/26 04:06:24;;;;;;;0.10;0.10;;;7.10;99.90;;;;;;4993016;28;20783;-64
2023/03/26 04:08:50;;;;;;;0.40;0.40;;;7.10;99.90;;;;;;5007890;28;20041;-64
2023/03/26 04:11:15;;;;;;;0.10;0.10;;;7.10;99.90;;;;;;4999912;28;20128;-64
2023/03/26 04:13:41;;;;;;;0.10;0.10;;;7.10;99.90;;;;;;5000510;28;20466;-64
2023/03/26 04:16:07;;;;;;;0.00;0.00;;;7.20;99.90;;;;;;5006195;28;20052;-64
2023/03/26 04:18:36;;;;;;;0.00;0.00;;;7.20;99.90;;;;;;4997316;28;20061;-64
2023/03/26 04:21:03;;;;;;;0.10;0.10;;;7.30;99.90;;;;;;5006188;28;20444;-64
2023/03/26 04:23:30;;;;;;;0.00;0.00;;;7.30;99.90;;;;;;5008625;28;20041;-64
2023/03/26 04:26:02;;;;;;;0.15;0.15;;;7.30;99.90;;;;;;5008914;28;20363;-64
2023/03/26 04:28:47;;;;;;;0.10;0.10;;;7.30;99.90;;;;;;4997056;28;20568;-64
2023/03/26 04:31:17;;;;;;;0.00;0.00;;;7.40;99.90;;;;;;5005139;28;20401;-64
2023/03/26 04:33:48;;;;;;;0.00;0.00;;;7.40;99.90;;;;;;4994648;28;20061;-64
2023/03/26 04:36:15;;;;;;;0.10;0.10;;;7.40;99.90;;;;;;4994410;28;20165;-64
2023/03/26 04:38:50;;;;;;;0.10;0.10;;;7.40;99.90;;;;;;5003818;28;20056;-64
2023/03/26 04:41:16;;;;;;;0.00;0.00;;;7.40;99.90;;;;;;4999316;28;20057;-64
2023/03/26 04:43:46;;;;;;;0.00;0.00;;;7.40;99.90;;;;;;4999576;28;20053;-64
2023/03/26 04:46:12;;;;;;;0.10;0.10;;;7.40;99.90;;;;;;5013173;28;20065;-64
2023/03/26 04:48:38;;;;;;;0.20;0.20;;;7.40;99.90;;;;;;5012627;28;20037;-64
2023/03/26 04:51:08;;;;;;;0.10;0.10;;;7.40;99.90;;;;;;5001800;28;20109;-64
2023/03/26 04:53:35;;;;;;;0.10;0.10;;;7.40;99.90;;;;;;5004963;28;20396;-64
2023/03/26 04:56:34;;;;;;;0.10;0.10;;;7.40;99.90;;;;;;5012290;28;20042;-64
2023/03/26 04:59:01;;;;;;;0.10;0.10;;;7.40;99.90;;;;;;5003387;28;20069;-64
2023/03/26 05:01:27;;;;;;;0.10;0.10;;;7.40;99.90;;;;;;4995974;28;20054;-64
2023/03/26 05:03:53;;;;;;;0.10;0.10;;;7.40;99.90;;;;;;5004791;28;20089;-64
2023/03/26 05:06:19;;;;;;;0.10;0.10;;;7.40;99.90;;;;;;5001344;28;20045;-64
2023/03/26 05:08:45;;;;;;;0.10;0.10;;;7.40;99.90;;;;;;4998170;28;20121;-64
2023/03/26 05:11:10;;;;;;;0.45;0.45;;;7.40;99.90;;;;;;5006773;28;20121;-64
2023/03/26 05:13:37;;;;;;;2.15;1.95;;;7.40;99.90;;;;;;5003563;28;20390;-64
2023/03/26 05:16:03;;;;;;;0.00;0.00;;;7.40;99.90;;;;;;4997874;28;20494;-64
2023/03/26 05:18:28;;;;;;;0.10;0.10;;;7.40;99.90;;;;;;4995765;28;20045;-64
2023/03/26 05:20:56;;;;;;;0.00;0.00;;;7.40;99.90;;;;;;5009941;28;20516;-64
2023/03/26 05:23:21;;;;;;;0.15;0.15;;;7.40;99.90;;;;;;5012467;28;20054;-64
2023/03/26 05:25:47;;;;;;;0.10;0.10;;;7.30;99.90;;;;;;5011807;28;20057;-64
2023/03/26 05:28:12;;;;;;;0.10;0.10;;;7.40;99.90;;;;;;4997947;28;20041;-64
2023/03/26 05:30:38;;;;;;;0.10;0.10;;;7.30;99.90;;;;;;4997973;28;20065;-64
2023/03/26 05:33:04;;;;;;;0.08;0.08;;;7.30;99.90;;;;;;5010242;28;20037;-64
2023/03/26 05:35:29;;;;;;;0.00;0.00;;;7.30;99.90;;;;;;5010240;28;20045;-64
2023/03/26 05:37:56;;;;;;;0.52;0.52;;;7.30;99.90;;;;;;5007399;28;20046;-64
2023/03/26 05:40:21;;;;;;;0.10;0.10;;;7.30;99.90;;;;;;4999916;28;20042;-64
2023/03/26 05:42:47;;;;;;;0.10;0.10;;;7.20;99.90;;;;;;5004653;28;20058;-64
2023/03/26 05:45:14;;;;;;;0.10;0.10;;;7.30;99.90;;;;;;5007206;28;20072;-64
2023/03/26 05:47:39;;;;;;;0.10;0.10;;;7.30;99.90;;;;;;5009289;28;20557;-64
2023/03/26 05:50:07;;;;;;;0.10;0.10;;;7.20;99.90;;;;;;5009184;28;20116;-64
2023/03/26 05:52:33;;;;;;;0.20;0.20;;;7.30;99.90;;;;;;5003113;28;20096;-64
2023/03/26 05:54:58;;;;;;;0.45;0.45;;;7.20;99.90;;;;;;5008544;28;20501;-64
2023/03/26 05:57:27;;;;;;;0.00;0.00;;;7.30;99.90;;;;;;5010333;28;20046;-64
2023/03/26 05:59:54;;;;;;;0.10;0.10;;;7.30;99.90;;;;;;5003770;28;20046;-64
2023/03/26 06:02:19;;;;;;;0.10;0.10;;;7.30;99.90;;;;;;5001925;28;20038;-64
2023/03/26 06:04:45;;;;;;;0.00;0.00;;;7.30;99.90;;;;;;5009251;28;20042;-64
2023/03/26 06:07:11;;;;;;;0.10;0.10;;;7.30;99.90;;;;;;5001452;28;20043;-64
2023/03/26 06:09:40;;;;;;;0.52;0.43;;;7.30;99.90;;;;;;4995953;28;20045;-64
2023/03/26 06:12:07;;;;;;;0.00;0.00;;;7.30;99.90;;;;;;5010609;28;20499;-64
2023/03/26 06:14:33;;;;;;;0.10;0.10;;;7.30;99.90;;;;;;5002181;28;20125;-64
2023/03/26 06:16:59;;;;;;;0.05;0.05;;;7.30;99.90;;;;;;4999111;28;20133;-64
2023/03/26 06:19:25;;;;;;;0.10;0.10;;;7.30;99.90;;;;;;5006077;28;20052;-64
2023/03/26 06:21:50;;;;;;;0.10;0.10;;;7.30;99.90;;;;;;5000505;28;20133;-64
2023/03/26 06:24:18;;;;;;;0.10;0.10;;;7.40;99.90;;;;;;5006864;28;20393;-64
2023/03/26 06:26:45;;;;;;;0.10;0.10;;;7.40;99.90;;;;;;5005802;28;20115;-64
2023/03/26 06:29:11;;;;;;;0.32;0.32;;;7.30;99.90;;;;;;5005284;28;20069;-64
2023/03/26 06:31:37;;;;;;;0.25;0.25;;;7.40;99.90;;;;;;5006515;28;20061;-64
2023/03/26 06:34:02;;;;;;;0.10;0.10;;;7.40;99.90;;;;;;5007157;28;20040;-64
2023/03/26 06:36:28;;;;;;;0.10;0.10;;;7.40;99.90;;;;;;5000312;28;20034;-64
2023/03/26 06:38:53;;;;;;;0.52;0.52;;;7.50;99.90;;;;;;5002552;28;20041;-64
2023/03/26 06:41:19;;;;;;;0.10;0.10;;;7.50;99.90;;;;;;5002435;28;20065;-64
2023/03/26 06:43:45;;;;;;;0.10;0.10;;;7.50;99.90;;;;;;5005462;28;20033;-64
2023/03/26 06:46:11;;;;;;;0.00;0.00;;;7.50;99.90;;;;;;5004024;28;20053;-64
2023/03/26 06:48:36;;;;;;;0.10;0.10;;;7.60;99.90;;;;;;4997943;28;20045;-64
2023/03/26 06:51:02;;;;;;;0.10;0.10;;;7.60;99.90;;;;;;5009193;28;20100;-64
2023/03/26 06:53:28;;;;;;;0.00;0.00;;;7.70;99.90;;;;;;4999538;28;20046;-64
2023/03/26 06:55:53;;;;;;;0.10;0.10;;;7.60;99.90;;;;;;5005642;28;20061;-64
2023/03/26 06:58:19;;;;;;;3.13;1.38;;;7.70;99.90;;;;;;5005071;28;20491;-64
2023/03/26 07:00:45;;;;;;;0.10;0.10;;;7.80;99.90;;;;;;4994697;28;20120;-64
2023/03/26 07:03:11;;;;;;;0.52;0.52;;;7.80;99.90;;;;;;5005517;28;20521;-64
2023/03/26 07:05:39;;;;;;;0.57;0.57;;;7.90;99.90;;;;;;5009241;28;20132;-64
2023/03/26 07:08:05;;;;;;;0.10;0.10;;;7.90;99.90;;;;;;4997617;28;20045;-64
2023/03/26 07:10:30;;;;;;;0.20;0.20;;;7.90;99.90;;;;;;5004344;28;20052;-64
2023/03/26 07:12:56;;;;;;;0.30;0.30;;;7.90;99.90;;;;;;5003691;28;20049;-63
2023/03/26 07:15:22;;;;;;;0.10;0.10;;;7.80;99.90;;;;;;5005671;28;20066;-63
2023/03/26 07:17:47;;;;;;;0.00;0.00;;;7.90;99.90;;;;;;4998724;28;20615;-63
2023/03/26 07:20:13;;;;;;;0.57;0.57;;;7.90;99.90;;;;;;5003327;28;20192;-64
2023/03/26 07:22:39;;;;;;;0.10;0.10;;;7.90;99.90;;;;;;5009460;28;20057;-64
2023/03/26 07:25:05;;;;;;;0.90;0.90;;;7.90;99.90;;;;;;5006611;28;20050;-63
2023/03/26 07:27:35;;;;;;;0.68;0.68;;;7.90;99.90;;;;;;4994009;28;20506;-64
2023/03/26 07:30:03;;;;;;;0.10;0.10;;;7.90;99.90;;;;;;5000647;28;20045;-63
2023/03/26 07:32:35;;;;;;;0.20;0.20;;;8.00;99.90;;;;;;5005688;28;20066;-63
2023/03/26 07:35:25;;;;;;;0.13;0.13;;;8.00;99.90;;;;;;4997297;28;20434;-63
2023/03/26 07:38:20;;;;;;;0.00;0.00;;;8.00;99.90;;;;;;5003226;28;20168;-63
2023/03/26 07:41:16;;;;;;;0.20;0.20;;;8.00;99.90;;;;;;5000214;28;20042;-64
2023/03/26 07:43:54;;;;;;;0.20;0.20;;;8.00;99.90;;;;;;5005453;28;20053;-63
2023/03/26 07:46:27;;;;;;;0.03;0.03;;;8.10;99.90;;;;;;5002401;28;20093;-63
2023/03/26 07:48:53;;;;;;;2.00;0.87;;;8.10;99.90;;;;;;5001928;28;20041;-63
2023/03/26 07:51:19;;;;;;;0.52;0.52;;;8.20;99.90;;;;;;5007455;28;20046;-64
2023/03/26 07:53:45;;;;;;;0.10;0.10;;;8.20;99.90;;;;;;5008719;28;20495;-64
2023/03/26 07:56:18;;;;;;;0.10;0.10;;;8.30;99.90;;;;;;5009300;28;20046;-63
2023/03/26 07:58:58;;;;;;;0.10;0.10;;;8.30;99.90;;;;;;5007100;28;20108;-63
2023/03/26 08:01:42;;;;;;;3.28;1.85;;;8.30;99.90;;;;;;4998952;28;20046;-63
2023/03/26 08:04:32;;;;;;;2.22;0.65;;;8.30;99.90;;;;;;4999157;28;20046;-63
2023/03/26 08:07:19;;;;;;;0.10;0.10;;;8.30;99.90;;;;;;4990126;28;20058;-63
2023/03/26 08:10:00;;;;;;;0.00;0.00;;;8.40;99.90;;;;;;4994057;28;20042;-63
2023/03/26 08:12:26;;;;;;;0.65;0.65;;;8.50;99.90;;;;;;4996520;28;20457;-64
2023/03/26 08:14:57;;;;;;;0.25;0.25;;;8.60;99.90;;;;;;4996874;28;20046;-63
2023/03/26 08:17:36;;;;;;;5.25;1.48;;;8.60;99.90;;;;;;4998653;28;20932;-64
2023/03/26 08:20:27;;;;;;;0.10;0.10;;;8.50;99.90;;;;;;5010730;28;20437;-63
2023/03/26 08:23:18;;;;;;;14.90;3.72;;;8.50;99.90;;;;;;4998629;28;20068;-64
2023/03/26 08:25:58;;;;;;;0.10;0.10;;;8.60;99.90;;;;;;5008223;28;20543;-63
2023/03/26 08:28:43;;;;;;;0.10;0.10;;;8.60;99.90;;;;;;5009991;28;20049;-64
2023/03/26 08:31:12;;;;;;;0.08;0.08;;;8.70;99.90;;;;;;5004736;28;20141;-64
2023/03/26 08:33:39;;;;;;;0.00;0.00;;;8.70;99.90;;;;;;5013497;28;20084;-64
2023/03/26 08:36:06;;;;;;;1.38;1.30;;;8.80;99.90;;;;;;4999660;28;20049;-63
2023/03/26 08:38:32;;;;;;;0.43;0.43;;;8.90;99.90;;;;;;4999086;28;20060;-64
2023/03/26 08:41:10;;;;;;;0.57;0.57;;;8.90;99.90;;;;;;5010224;28;20132;-63
2023/03/26 08:44:07;;;;;;;1.75;1.65;;;8.90;99.90;;;;;;5009021;28;20496;-64
2023/03/26 08:46:57;;;;;;;0.10;0.10;;;9.00;99.90;;;;;;4982263;28;20057;-63
2023/03/26 08:49:40;;;;;;;0.10;0.10;;;9.00;99.90;;;;;;5001129;28;20037;-62
2023/03/26 08:52:56;;;;;;;0.10;0.10;;;9.10;99.90;;;;;;5012060;28;20093;-63
2023/03/26 08:55:44;;;;;;;0.00;0.00;;;9.10;99.90;;;;;;4986133;28;20054;-63
2023/03/26 08:58:28;;;;;;;0.52;0.52;;;9.20;99.90;;;;;;5010545;28;20515;-64
2023/03/26 09:01:15;;;;;;;0.10;0.10;;;9.20;99.90;;;;;;5013225;28;20434;-64
2023/03/26 09:04:13;;;;;;;0.00;0.00;;;9.30;99.90;;;;;;5001776;28;20796;-64
2023/03/26 09:06:57;;;;;;;0.95;0.95;;;9.40;99.90;;;;;;5011361;28;20041;-63
2023/03/26 09:10:05;;;;;;;0.10;0.10;;;9.50;99.90;;;;;;4996475;28;20057;-64
2023/03/26 09:12:39;;;;;;;0.10;0.10;;;9.60;99.90;;;;;;4985653;28;20050;-64
2023/03/26 09:15:36;;;;;;;9.52;0.85;;;9.70;99.90;;;;;;5000664;28;20402;-64
2023/03/26 09:18:04;;;;;;;0.75;0.75;;;9.60;99.90;;;;;;4994470;28;20136;-64
2023/03/26 09:21:08;;;;;;;0.10;0.10;;;9.70;99.90;;;;;;5006986;28;20065;-64
2023/03/26 09:23:39;;;;;;;0.00;0.00;;;9.70;99.90;;;;;;5002129;28;20151;-64
2023/03/26 09:26:29;;;;;;;3.47;2.47;;;9.50;99.90;;;;;;5009042;28;20050;-64
2023/03/26 09:29:21;;;;;;;0.55;0.55;;;9.50;99.90;;;;;;5005494;28;20042;-64
2023/03/26 09:32:06;;;;;;;0.10;0.10;;;9.50;99.90;;;;;;5003337;28;20045;-64
2023/03/26 09:35:11;;;;;;;0.00;0.00;;;9.50;99.90;;;;;;4999977;28;20049;-64
2023/03/26 09:38:09;;;;;;;0.00;0.00;;;9.50;99.90;;;;;;5011031;28;20567;-64
2023/03/26 09:40:46;;;;;;;0.10;0.10;;;9.50;99.90;;;;;;4986946;28;20050;-63
2023/03/26 09:43:43;;;;;;;3.72;1.55;;;9.50;99.90;;;;;;5007369;28;20053;-64
2023/03/26 09:46:26;;;;;;;7.22;3.50;;;9.40;99.90;;;;;;4992349;28;20112;-64
2023/03/26 09:49:19;;;;;;;0.38;0.38;;;9.50;99.90;;;;;;5005910;28;20054;-64
2023/03/26 09:52:03;;;;;;;0.10;0.10;;;9.50;99.90;;;;;;5006854;28;20050;-64
2023/03/26 09:54:58;;;;;;;0.10;0.10;;;9.50;99.90;;;;;;5004605;28;20132;-64
2023/03/26 09:57:32;;;;;;;1.48;1.38;;;9.50;99.90;;;;;;4995534;28;20049;-64
2023/03/26 09:59:57;;;;;;;0.10;0.10;;;9.50;99.90;;;;;;5004857;28;20038;-64
2023/03/26 10:02:51;;;;;;;0.00;0.00;;;9.50;99.90;;;;;;5000993;28;20044;-64
2023/03/26 10:05:37;;;;;;;0.03;0.03;;;9.60;99.90;;;;;;5003037;28;20152;-64
2023/03/26 10:08:23;;;;;;;0.10;0.10;;;9.60;99.90;;;;;;4998444;28;20058;-64
2023/03/26 10:11:12;;;;;;;19.00;2.40;;;9.70;99.90;;;;;;5010657;28;20108;-63
2023/03/26 10:14:02;;;;;;;0.10;0.10;;;9.70;99.90;;;;;;5006009;28;20579;-63
2023/03/26 10:16:41;;;;;;;0.00;0.00;;;9.70;99.90;;;;;;5005996;28;20046;-63
2023/03/26 10:19:32;;;;;;;0.10;0.10;;;9.80;99.90;;;;;;5004987;28;20053;-64
2023/03/26 10:22:26;;;;;;;0.17;0.17;;;9.80;99.90;;;;;;4992912;28;20068;-64
2023/03/26 10:25:30;;;;;;;0.10;0.10;;;9.80;99.90;;;;;;4991177;28;20062;-64
2023/03/26 10:28:14;;;;;;;0.10;0.10;;;9.80;99.90;;;;;;4994143;28;20493;-64
2023/03/26 10:31:18;;;;;;;0.10;0.10;;;9.90;99.90;;;;;;5004766;28;20069;-64
2023/03/26 10:34:02;;;;;;;0.57;0.57;;;9.90;99.90;;;;;;5005394;28;20053;-64
2023/03/26 10:36:39;;;;;;;0.10;0.10;;;9.90;99.90;;;;;;4996694;28;20049;-64
2023/03/26 10:39:30;;;;;;;0.10;0.10;;;10.00;99.90;;;;;;5003410;28;20054;-64
2023/03/26 10:42:12;;;;;;;0.17;0.17;;;10.00;99.90;;;;;;5009855;28;20046;-64
2023/03/26 10:45:08;;;;;;;0.15;0.15;;;10.20;99.90;;;;;;5007308;28;20063;-64
2023/03/26 10:47:46;;;;;;;0.00;0.00;;;10.10;99.90;;;;;;5004216;28;20053;-64
2023/03/26 10:50:27;;;;;;;0.10;0.10;;;10.00;99.90;;;;;;5009877;28;20054;-64
2023/03/26 10:53:09;;;;;;;1.35;0.98;;;10.00;99.90;;;;;;4998699;28;20104;-64
2023/03/26 10:55:40;;;;;;;0.00;0.00;;;9.90;99.90;;;;;;5010601;28;20370;-64
2023/03/26 10:58:24;;;;;;;0.40;0.38;;;9.90;99.90;;;;;;5009726;28;20042;-64
2023/03/26 11:01:02;;;;;;;0.20;0.20;;;9.90;99.90;;;;;;4998428;28;20049;-64
2023/03/26 11:03:51;;;;;;;1.50;1.40;;;9.90;99.90;;;;;;5007120;28;20062;-64
2023/03/26 11:06:29;;;;;;;0.10;0.10;;;9.80;99.90;;;;;;5008046;28;20053;-64
2023/03/26 11:09:00;;;;;;;0.75;0.70;;;9.80;99.90;;;;;;4993592;28;20130;-64
2023/03/26 11:12:02;;;;;;;0.10;0.10;;;9.90;99.90;;;;;;5007486;28;20073;-64
2023/03/26 11:15:04;;;;;;;0.00;0.00;;;9.90;99.90;;;;;;4996680;28;20054;-64
2023/03/26 11:17:40;;;;;;;1.85;0.82;;;10.10;99.90;;;;;;5003481;28;20501;-64
2023/03/26 11:20:10;;;;;;;0.55;0.55;;;10.40;99.90;;;;;;5009662;28;20092;-64
2023/03/26 11:23:18;;;;;;;0.10;0.10;;;10.90;99.90;;;;;;5000637;28;20588;-64
2023/03/26 11:25:54;;;;;;;1.85;0.90;;;10.90;99.90;;;;;;4946670;28;20047;-64
2023/03/26 11:28:53;;;;;;;0.00;0.00;;;10.80;99.90;;;;;;4994666;28;20405;-64
2023/03/26 11:31:46;;;;;;;0.00;0.00;;;10.70;99.90;;;;;;5002454;28;20049;-64
2023/03/26 11:34:16;;;;;;;0.10;0.10;;;10.50;99.90;;;;;;5006488;28;20048;-64
2023/03/26 11:36:51;;;;;;;0.13;0.13;;;10.60;99.90;;;;;;5007442;28;20056;-64
2023/03/26 11:39:29;;;;;;;0.00;0.00;;;10.60;99.90;;;;;;5008542;28;20066;-64
2023/03/26 11:42:09;;;;;;;0.10;0.10;;;10.60;99.90;;;;;;5007376;28;20087;-64
2023/03/26 11:44:51;;;;;;;0.00;0.00;;;10.70;99.90;;;;;;5003075;28;20065;-64
2023/03/26 11:47:27;;;;;;;0.15;0.15;;;10.80;99.90;;;;;;5008059;28;20478;-64
2023/03/26 11:49:57;;;;;;;34.30;1.75;;;10.80;99.90;;;;;;5000730;28;20045;-64
2023/03/26 11:52:25;;;;;;;0.03;0.03;;;10.60;99.90;;;;;;4996889;28;20192;-64
2023/03/26 11:54:51;;;;;;;0.52;0.52;;;10.50;99.90;;;;;;5013937;28;20077;-64
2023/03/26 11:57:41;;;;;;;0.10;0.10;;;10.50;99.90;;;;;;5013842;28;20520;-64
2023/03/26 12:00:17;;;;;;;0.10;0.10;;;10.50;99.90;;;;;;5000776;28;20045;-64
2023/03/26 12:02:45;;;;;;;1.27;1.17;;;10.50;99.90;;;;;;5001792;28;20046;-64
2023/03/26 12:05:18;;;;;;;0.10;0.10;;;10.40;99.90;;;;;;5003453;28;20065;-64
2023/03/26 12:07:57;;;;;;;2.08;1.17;;;10.30;99.90;;;;;;5013468;28;20072;-64
2023/03/26 12:10:36;;;;;;;0.10;0.10;;;10.30;99.90;;;;;;5007497;28;20398;-64
2023/03/26 12:13:20;;;;;;;0.10;0.10;;;10.30;99.90;;;;;;5006129;28;20786;-64
2023/03/26 12:15:46;;;;;;;0.10;0.10;;;10.20;99.90;;;;;;5012833;28;20065;-64
2023/03/26 12:18:24;;;;;;;0.10;0.10;;;10.20;99.90;;;;;;4997849;28;20038;-64
2023/03/26 12:21:03;;;;;;;1.98;0.57;;;10.30;99.90;;;;;;5007259;28;20076;-64
2023/03/26 12:23:41;;;;;;;0.10;0.10;;;10.30;99.90;;;;;;5003991;28;20042;-64
2023/03/26 12:26:19;;;;;;;3.40;2.20;;;10.30;99.90;;;;;;5001927;28;20042;-64
2023/03/26 12:28:48;;;;;;;0.57;0.57;;;10.20;99.90;;;;;;5001404;28;20038;-64
2023/03/26 12:31:17;;;;;;;0.10;0.10;;;10.30;99.90;;;;;;5002036;28;20038;-64
2023/03/26 12:33:49;;;;;;;0.10;0.10;;;10.20;99.90;;;;;;5004825;28;20042;-64
2023/03/26 12:36:37;;;;;;;0.10;0.10;;;10.20;99.90;;;;;;5009848;28;20042;-64
2023/03/26 12:39:25;;;;;;;2.28;1.23;;;10.40;99.90;;;;;;5012999;28;20042;-64
2023/03/26 12:41:59;;;;;;;0.10;0.10;;;10.30;99.90;;;;;;5011574;28;20117;-64
2023/03/26 12:44:30;;;;;;;;;;;10.30;99.90;;;;;;5011760;28;20448;-64
2023/03/26 12:47:16;;;;;;;0.10;0.10;;;10.20;99.90;;;;;;5012941;28;19922;-64
2023/03/26 12:49:42;;;;;;;0.10;0.10;;;10.30;99.90;;;;;;5012551;28;20053;-64
2023/03/26 12:52:26;;;;;;;0.45;0.40;;;10.30;99.90;;;;;;4998707;28;20473;-64
2023/03/26 12:55:28;;;;;;;;;;;10.30;99.90;;;;;;5007521;28;20042;-64
2023/03/26 12:58:03;;;;;;;0.30;0.30;;;10.50;99.90;;;;;;4971049;28;20333;-64
2023/03/26 13:00:56;;;;;;;1.92;1.80;;;10.70;99.90;;;;;;4988002;28;20140;-64
2023/03/26 13:04:02;;;;;;;0.22;0.22;;;10.60;99.90;;;;;;4996579;28;20113;-64
2023/03/26 13:06:43;;;;;;;0.75;0.75;;;10.50;99.90;;;;;;5010501;28;20601;-64
2023/03/26 13:09:42;;;;;;;0.20;0.20;;;10.80;99.90;;;;;;4998743;28;20054;-64
2023/03/26 13:12:26;;;;;;;0.03;0.03;;;10.70;99.90;;;;;;5001105;28;20045;-64
2023/03/26 13:15:19;;;;;;;0.00;0.00;;;10.80;99.90;;;;;;5011922;28;20054;-64
2023/03/26 13:18:22;;;;;;;0.20;0.20;;;10.60;99.90;;;;;;4995245;28;20042;-64
2023/03/26 13:21:15;;;;;;;0.00;0.00;;;10.60;99.90;;;;;;5002313;28;20057;-64
2023/03/26 13:23:58;;;;;;;0.00;0.00;;;10.40;99.90;;;;;;4998113;28;20042;-64
2023/03/26 13:26:49;;;;;;;0.10;0.10;;;10.40;99.90;;;;;;4999984;28;20054;-64
2023/03/26 13:29:39;;;;;;;0.10;0.10;;;10.30;99.90;;;;;;5001870;28;20350;-64
2023/03/26 13:32:33;;;;;;;0.20;0.20;;;10.30;99.90;;;;;;5004395;28;20921;-64
2023/03/26 13:35:06;;;;;;;0.45;0.45;;;10.20;99.90;;;;;;5009880;28;20113;-64